createdAt,value
2022-12-27T00:01:16.855Z,2.17
2022-12-27T00:03:44.726Z,2.00
2022-12-27T00:06:13.679Z,1.63
2022-12-27T00:08:41.598Z,1.30
2022-12-27T00:11:09.737Z,1.30
2022-12-27T00:13:37.605Z,1.30
2022-12-27T00:16:06.555Z,0.93
2022-12-27T00:18:35.901Z,1.20
2022-12-27T00:21:04.487Z,1.63
2022-12-27T00:23:33.133Z,1.20
2022-12-27T00:26:02.321Z,1.30
2022-12-27T00:28:31.547Z,1.20
2022-12-27T00:30:59.522Z,1.30
2022-12-27T00:33:27.465Z,1.50
2022-12-27T00:35:56.789Z,1.20
2022-12-27T00:38:24.678Z,1.43
2022-12-27T00:40:52.575Z,1.27
2022-12-27T00:43:20.435Z,1.40
2022-12-27T00:45:48.513Z,1.27
2022-12-27T00:48:16.411Z,1.40
2022-12-27T00:50:44.604Z,1.37
2022-12-27T00:53:14.005Z,1.33
2022-12-27T00:55:43.619Z,1.27
2022-12-27T00:58:11.587Z,1.50
2022-12-27T01:00:39.494Z,1.30
2022-12-27T01:03:07.482Z,1.27
2022-12-27T01:05:37.396Z,1.13
2022-12-27T01:08:05.415Z,1.27
2022-12-27T01:10:34.692Z,1.40
2022-12-27T01:13:02.578Z,1.20
2022-12-27T01:15:30.519Z,1.33
2022-12-27T01:17:58.405Z,1.20
2022-12-27T01:20:26.285Z,1.40
2022-12-27T01:22:54.955Z,1.40
2022-12-27T01:25:22.879Z,1.40
2022-12-27T01:27:52.132Z,1.60
2022-12-27T01:30:20.167Z,1.47
2022-12-27T01:32:48.018Z,1.53
2022-12-27T01:35:15.994Z,1.50
2022-12-27T01:37:43.907Z,1.20
2022-12-27T01:40:12.715Z,1.40
2022-12-27T01:42:55.797Z,1.53
2022-12-27T01:45:25.622Z,1.20
2022-12-27T01:47:56.701Z,1.30
2022-12-27T01:50:28.691Z,1.40
2022-12-27T01:53:00.783Z,1.57
2022-12-27T01:55:32.564Z,1.70
2022-12-27T01:58:02.970Z,1.37
2022-12-27T02:00:32.242Z,1.67
2022-12-27T02:03:00.195Z,1.40
2022-12-27T02:05:28.202Z,1.37
2022-12-27T02:08:00.657Z,1.30
2022-12-27T02:10:29.377Z,0.97
2022-12-27T02:12:57.759Z,1.13
2022-12-27T02:15:25.954Z,1.10
2022-12-27T02:17:55.319Z,1.40
2022-12-27T02:20:24.005Z,1.37
2022-12-27T02:23:56.841Z,1.30
2022-12-27T02:26:47.173Z,1.00
2022-12-27T02:29:36.945Z,1.03
2022-12-27T02:32:06.962Z,1.27
2022-12-27T02:34:38.747Z,1.50
2022-12-27T02:37:09.656Z,1.23
2022-12-27T02:39:39.387Z,1.27
2022-12-27T02:42:24.651Z,1.10
2022-12-27T02:45:11.268Z,1.23
2022-12-27T02:47:57.203Z,1.30
2022-12-27T02:50:42.760Z,1.10
2022-12-27T02:53:13.219Z,1.30
2022-12-27T02:56:13.307Z,1.40
2022-12-27T02:58:49.749Z,1.33
2022-12-27T03:01:40.718Z,1.40
2022-12-27T03:04:19.733Z,1.07
2022-12-27T03:06:56.282Z,1.57
2022-12-27T03:10:00.693Z,1.20
2022-12-27T03:12:53.591Z,1.43
2022-12-27T03:15:52.840Z,1.13
2022-12-27T03:18:24.198Z,1.20
2022-12-27T03:21:09.606Z,1.23
2022-12-27T03:23:55.047Z,1.23
2022-12-27T03:26:23.209Z,1.23
2022-12-27T03:29:08.517Z,1.00
2022-12-27T03:31:55.237Z,1.50
2022-12-27T03:34:33.249Z,1.10
2022-12-27T03:37:22.066Z,1.17
2022-12-27T03:39:53.205Z,1.30
2022-12-27T03:42:40.742Z,1.57
2022-12-27T03:45:09.423Z,1.27
2022-12-27T03:47:37.830Z,1.27
2022-12-27T03:50:08.831Z,1.53
2022-12-27T03:52:39.102Z,0.90
2022-12-27T03:55:07.527Z,1.00
2022-12-27T03:57:35.489Z,1.10
2022-12-27T04:00:04.510Z,1.20
2022-12-27T04:02:32.630Z,1.43
2022-12-27T04:05:00.676Z,1.30
2022-12-27T04:07:29.970Z,1.27
2022-12-27T04:10:15.324Z,1.50
2022-12-27T04:13:00.837Z,1.00
2022-12-27T04:15:46.285Z,1.20
2022-12-27T04:18:31.423Z,1.10
2022-12-27T04:21:16.609Z,1.10
2022-12-27T04:24:03.251Z,1.30
2022-12-27T04:26:48.805Z,1.30
2022-12-27T04:29:34.205Z,1.30
2022-12-27T04:32:19.576Z,1.07
2022-12-27T04:34:47.471Z,1.20
2022-12-27T04:37:16.132Z,1.30
2022-12-27T04:40:07.853Z,1.30
2022-12-27T04:42:52.427Z,0.90
2022-12-27T04:45:52.359Z,1.23
2022-12-27T04:48:37.676Z,1.50
2022-12-27T04:51:23.069Z,1.20
2022-12-27T04:54:08.463Z,1.00
2022-12-27T04:56:37.765Z,1.50
2022-12-27T04:59:23.244Z,1.20
2022-12-27T05:02:06.573Z,1.23
2022-12-27T05:04:35.771Z,0.90
2022-12-27T05:07:23.801Z,1.30
2022-12-27T05:10:09.164Z,1.47
2022-12-27T05:12:56.219Z,1.10
2022-12-27T05:15:24.149Z,1.00
2022-12-27T05:17:52.084Z,1.00
2022-12-27T05:20:20.015Z,0.90
2022-12-27T05:23:05.261Z,1.30
2022-12-27T05:25:35.768Z,1.33
2022-12-27T05:28:05.499Z,1.20
2022-12-27T05:30:33.896Z,1.67
2022-12-27T05:33:01.788Z,1.23
2022-12-27T05:35:30.251Z,1.27
2022-12-27T05:37:58.219Z,1.27
2022-12-27T05:40:26.160Z,1.37
2022-12-27T05:42:54.385Z,1.27
2022-12-27T05:45:23.623Z,1.23
2022-12-27T05:47:51.651Z,1.30
2022-12-27T05:50:19.718Z,1.43
2022-12-27T05:52:47.727Z,1.00
2022-12-27T05:55:15.706Z,1.07
2022-12-27T05:57:43.659Z,1.10
2022-12-27T06:00:12.745Z,1.33
2022-12-27T06:02:42.329Z,1.07
2022-12-27T06:05:10.813Z,1.20
2022-12-27T06:07:38.888Z,1.23
2022-12-27T06:10:07.807Z,0.97
2022-12-27T06:12:35.854Z,1.23
2022-12-27T06:15:04.254Z,1.00
2022-12-27T06:17:32.268Z,1.00
2022-12-27T06:20:01.717Z,1.13
2022-12-27T06:22:30.030Z,1.03
2022-12-27T06:24:57.924Z,1.00
2022-12-27T06:27:25.838Z,1.13
2022-12-27T06:29:53.825Z,1.13
2022-12-27T06:32:21.738Z,1.00
2022-12-27T06:34:50.045Z,1.23
2022-12-27T06:37:19.292Z,1.17
2022-12-27T06:39:47.144Z,0.90
2022-12-27T06:42:15.058Z,1.10
2022-12-27T06:44:43.091Z,0.80
2022-12-27T06:47:10.982Z,1.20
2022-12-27T06:49:38.950Z,2.30
2022-12-27T06:52:06.945Z,1.40
2022-12-27T06:54:36.332Z,1.10
2022-12-27T06:57:04.392Z,1.27
2022-12-27T06:59:32.296Z,1.00
2022-12-27T07:02:00.634Z,2.77
2022-12-27T07:04:28.854Z,2.73
2022-12-27T07:06:56.998Z,0.97
2022-12-27T07:09:25.119Z,0.87
2022-12-27T07:11:54.602Z,1.70
2022-12-27T07:14:22.531Z,1.13
2022-12-27T07:16:50.615Z,3.20
2022-12-27T07:19:18.560Z,1.27
2022-12-27T07:21:46.423Z,1.07
2022-12-27T07:24:14.312Z,1.10
2022-12-27T07:26:42.276Z,1.13
2022-12-27T07:29:12.168Z,1.33
2022-12-27T07:31:40.133Z,1.47
2022-12-27T07:34:08.206Z,0.90
2022-12-27T07:36:37.734Z,1.20
2022-12-27T07:39:06.039Z,1.43
2022-12-27T07:41:34.204Z,1.53
2022-12-27T07:44:02.262Z,1.40
2022-12-27T07:46:31.583Z,1.10
2022-12-27T07:49:00.136Z,1.40
2022-12-27T07:51:28.283Z,1.70
2022-12-27T07:53:56.253Z,1.60
2022-12-27T07:56:26.489Z,1.13
2022-12-27T07:58:55.133Z,1.47
2022-12-27T08:01:23.900Z,1.60
2022-12-27T08:03:53.362Z,1.27
2022-12-27T08:06:23.436Z,1.30
2022-12-27T08:08:51.518Z,1.80
2022-12-27T08:11:19.680Z,1.17
2022-12-27T08:13:47.658Z,1.77
2022-12-27T08:16:17.880Z,1.43
2022-12-27T08:18:45.853Z,1.53
2022-12-27T08:21:15.365Z,1.47
2022-12-27T08:23:43.317Z,1.20
2022-12-27T08:26:11.392Z,1.77
2022-12-27T08:28:39.860Z,1.73
2022-12-27T08:31:08.279Z,1.47
2022-12-27T08:33:36.398Z,1.57
2022-12-27T08:36:28.708Z,1.40
2022-12-27T08:38:56.086Z,1.33
2022-12-27T08:41:24.161Z,1.50
2022-12-27T08:43:52.039Z,1.40
2022-12-27T08:46:20.200Z,1.87
2022-12-27T08:48:48.843Z,1.27
2022-12-27T08:51:30.009Z,1.60
2022-12-27T08:54:02.412Z,1.40
2022-12-27T08:56:31.542Z,1.73
2022-12-27T08:58:59.775Z,1.60
2022-12-27T09:01:27.918Z,1.37
2022-12-27T09:03:55.874Z,1.83
2022-12-27T09:06:25.686Z,1.60
2022-12-27T09:08:54.754Z,1.53
2022-12-27T09:11:25.416Z,1.67
2022-12-27T09:13:53.340Z,1.70
2022-12-27T09:16:22.082Z,1.90
2022-12-27T09:18:51.021Z,1.37
2022-12-27T09:21:19.515Z,1.53
2022-12-27T09:23:48.004Z,1.73
2022-12-27T09:26:17.592Z,1.80
2022-12-27T09:28:47.116Z,1.57
2022-12-27T09:31:15.441Z,1.77
2022-12-27T09:33:43.446Z,1.63
2022-12-27T09:36:12.499Z,1.70
2022-12-27T09:38:40.396Z,1.70
2022-12-27T09:41:19.288Z,1.40
2022-12-27T09:43:59.534Z,1.30
2022-12-27T09:46:30.061Z,1.50
2022-12-27T09:48:58.213Z,1.67
2022-12-27T09:51:27.712Z,2.43
2022-12-27T09:53:58.728Z,1.83
2022-12-27T09:56:40.823Z,1.50
2022-12-27T09:59:21.508Z,1.37
2022-12-27T10:01:49.552Z,1.50
2022-12-27T10:04:18.308Z,1.70
2022-12-27T10:07:04.589Z,2.03
2022-12-27T10:09:55.421Z,1.83
2022-12-27T10:12:32.076Z,1.57
2022-12-27T10:15:07.905Z,1.73
2022-12-27T10:17:52.653Z,1.70
2022-12-27T10:20:24.796Z,1.60
2022-12-27T10:22:53.861Z,1.70
2022-12-27T10:25:23.123Z,1.80
2022-12-27T10:27:52.445Z,1.67
2022-12-27T10:30:22.610Z,1.60
2022-12-27T10:32:50.549Z,2.00
2022-12-27T10:35:20.379Z,1.70
2022-12-27T10:37:48.774Z,1.60
2022-12-27T10:40:18.472Z,1.80
2022-12-27T10:42:49.094Z,2.70
2022-12-27T10:45:33.593Z,1.80
2022-12-27T10:48:15.643Z,1.90
2022-12-27T10:50:51.971Z,1.83
2022-12-27T10:53:28.935Z,1.90
2022-12-27T10:56:15.498Z,2.20
2022-12-27T10:58:45.223Z,1.60
2022-12-27T11:01:19.802Z,1.67
2022-12-27T11:03:48.224Z,1.90
2022-12-27T11:06:22.309Z,1.90
2022-12-27T11:08:50.558Z,1.70
2022-12-27T11:11:20.697Z,1.77
2022-12-27T11:13:49.307Z,1.80
2022-12-27T11:16:30.147Z,1.43
2022-12-27T11:18:59.116Z,2.00
2022-12-27T11:21:28.204Z,2.50
2022-12-27T11:23:57.891Z,2.10
2022-12-27T11:26:26.664Z,1.70
2022-12-27T11:28:55.753Z,2.10
2022-12-27T11:31:33.993Z,1.70
2022-12-27T11:34:02.893Z,2.17
2022-12-27T11:36:33.268Z,3.23
2022-12-27T11:39:01.748Z,2.70
2022-12-27T11:41:37.436Z,3.70
2022-12-27T11:44:10.046Z,2.73
2022-12-27T11:46:42.765Z,2.70
2022-12-27T11:49:15.048Z,2.23
2022-12-27T11:52:08.874Z,2.10
2022-12-27T11:55:03.909Z,2.10
2022-12-27T11:57:38.593Z,2.13
2022-12-27T12:00:08.263Z,2.13
2022-12-27T12:02:47.762Z,2.03
2022-12-27T12:05:42.056Z,2.63
2022-12-27T12:08:22.388Z,1.70
2022-12-27T12:10:52.208Z,1.77
2022-12-27T12:13:58.029Z,2.00
2022-12-27T12:17:05.442Z,1.70
2022-12-27T12:19:44.900Z,1.97
2022-12-27T12:22:22.629Z,1.70
2022-12-27T12:25:30.184Z,1.83
2022-12-27T12:28:30.106Z,2.03
2022-12-27T12:31:03.994Z,1.50
2022-12-27T12:33:49.032Z,2.17
2022-12-27T12:36:30.863Z,1.83
2022-12-27T12:39:02.104Z,2.20
2022-12-27T12:41:53.140Z,2.30
2022-12-27T12:44:51.104Z,2.27
2022-12-27T12:47:31.498Z,2.00
2022-12-27T12:50:11.158Z,1.90
2022-12-27T12:53:04.833Z,1.60
2022-12-27T12:55:59.161Z,1.90
2022-12-27T12:58:36.413Z,2.30
2022-12-27T13:01:15.342Z,2.53
2022-12-27T13:04:01.061Z,2.10
2022-12-27T13:06:51.142Z,1.70
2022-12-27T13:09:25.655Z,2.47
2022-12-27T13:11:55.028Z,1.63
2022-12-27T13:14:40.753Z,1.80
2022-12-27T13:17:11.810Z,2.20
2022-12-27T13:19:45.474Z,2.10
2022-12-27T13:22:17.550Z,1.73
2022-12-27T13:25:00.107Z,3.63
2022-12-27T13:27:31.319Z,3.87
2022-12-27T13:30:07.113Z,2.07
2022-12-27T13:32:43.579Z,2.50
2022-12-27T13:35:22.906Z,1.87
2022-12-27T13:37:55.995Z,2.00
2022-12-27T13:40:50.644Z,1.97
2022-12-27T13:43:59.465Z,1.80
2022-12-27T13:46:42.383Z,1.93
2022-12-27T13:49:24.611Z,1.83
2022-12-27T13:51:52.799Z,1.63
2022-12-27T13:55:14.516Z,2.00
2022-12-27T13:58:26.908Z,1.50
2022-12-27T14:00:58.707Z,1.57
2022-12-27T14:03:47.880Z,1.40
2022-12-27T14:06:37.176Z,1.83
2022-12-27T14:09:30.475Z,1.83
2022-12-27T14:12:10.553Z,1.30
2022-12-27T14:14:39.405Z,1.10
2022-12-27T14:17:21.111Z,1.60
2022-12-27T14:20:02.846Z,1.33
2022-12-27T14:22:59.161Z,1.77
2022-12-27T14:25:54.420Z,1.90
2022-12-27T14:29:10.202Z,1.80
2022-12-27T14:32:17.498Z,2.27
2022-12-27T14:35:05.950Z,1.90
2022-12-27T14:38:31.192Z,1.70
2022-12-27T14:41:31.370Z,1.57
2022-12-27T14:44:31.394Z,1.50
2022-12-27T14:47:21.184Z,1.77
2022-12-27T14:50:26.467Z,1.57
2022-12-27T14:53:45.504Z,1.20
2022-12-27T14:56:21.341Z,1.67
2022-12-27T14:59:03.164Z,1.50
2022-12-27T15:01:41.016Z,2.20
2022-12-27T15:04:28.777Z,1.97
2022-12-27T15:07:06.834Z,1.40
2022-12-27T15:09:37.230Z,1.53
2022-12-27T15:12:12.434Z,1.30
2022-12-27T15:14:51.722Z,1.60
2022-12-27T15:17:23.944Z,1.60
2022-12-27T15:20:10.557Z,1.60
2022-12-27T15:22:44.164Z,1.40
2022-12-27T15:25:19.825Z,1.53
2022-12-27T15:27:55.263Z,1.63
2022-12-27T15:30:25.459Z,2.10
2022-12-27T15:32:58.880Z,1.67
2022-12-27T15:35:34.727Z,1.80
2022-12-27T15:38:08.018Z,1.50
2022-12-27T15:41:11.400Z,1.80
2022-12-27T15:44:10.045Z,1.63
2022-12-27T15:47:04.995Z,1.83
2022-12-27T15:49:54.328Z,1.60
2022-12-27T15:52:26.238Z,1.57
2022-12-27T15:55:02.466Z,1.30
2022-12-27T15:57:37.818Z,1.33
2022-12-27T16:00:29.893Z,1.83
2022-12-27T16:03:01.747Z,1.60
2022-12-27T16:05:52.407Z,1.60
2022-12-27T16:08:34.942Z,1.30
2022-12-27T16:11:05.052Z,1.40
2022-12-27T16:13:47.189Z,1.23
2022-12-27T16:16:52.418Z,1.63
2022-12-27T16:19:55.652Z,1.30
2022-12-27T16:22:26.944Z,1.63
2022-12-27T16:24:56.589Z,1.50
2022-12-27T16:27:29.766Z,1.30
2022-12-27T16:29:57.909Z,1.60
2022-12-27T16:32:28.241Z,1.30
2022-12-27T16:34:57.012Z,1.13
2022-12-27T16:37:27.932Z,1.20
2022-12-27T16:40:06.256Z,1.10
2022-12-27T16:42:54.831Z,1.57
2022-12-27T16:45:30.509Z,1.40
2022-12-27T16:48:10.303Z,1.43
2022-12-27T16:50:49.005Z,1.40
2022-12-27T16:53:47.190Z,1.00
2022-12-27T16:56:17.680Z,1.40
2022-12-27T16:58:46.173Z,1.47
2022-12-27T17:01:55.246Z,2.10
2022-12-27T17:04:56.546Z,1.23
2022-12-27T17:07:51.874Z,1.70
2022-12-27T17:10:34.798Z,1.53
2022-12-27T17:13:06.191Z,1.40
2022-12-27T17:15:34.122Z,1.30
2022-12-27T17:18:07.940Z,1.30
2022-12-27T17:20:37.763Z,1.80
2022-12-27T17:23:05.783Z,2.27
2022-12-27T17:25:37.485Z,1.60
2022-12-27T17:28:07.969Z,1.40
2022-12-27T17:30:39.645Z,1.40
2022-12-27T17:33:32.718Z,1.30
2022-12-27T17:36:21.744Z,1.40
2022-12-27T17:38:55.747Z,1.70
2022-12-27T17:41:45.290Z,1.50
2022-12-27T17:44:34.365Z,1.00
2022-12-27T17:47:15.064Z,1.33
2022-12-27T17:49:43.554Z,1.00
2022-12-27T17:52:33.989Z,1.20
2022-12-27T17:55:26.123Z,1.10
2022-12-27T17:57:55.846Z,1.03
2022-12-27T18:00:24.531Z,1.20
2022-12-27T18:02:52.868Z,0.90
2022-12-27T18:05:25.792Z,1.10
2022-12-27T18:08:02.351Z,1.57
2022-12-27T18:10:31.707Z,0.73
2022-12-27T18:13:01.104Z,0.93
2022-12-27T18:15:30.034Z,0.70
2022-12-27T18:17:59.376Z,0.80
2022-12-27T18:20:31.873Z,0.90
2022-12-27T18:23:15.562Z,1.30
2022-12-27T18:25:51.035Z,0.87
2022-12-27T18:28:20.199Z,1.17
2022-12-27T18:30:49.429Z,3.27
2022-12-27T18:33:17.627Z,1.10
2022-12-27T18:35:46.792Z,1.57
2022-12-27T18:38:18.209Z,1.60
2022-12-27T18:40:46.079Z,5.57
2022-12-27T18:43:15.746Z,1.90
2022-12-27T18:45:44.128Z,1.93
2022-12-27T18:48:13.006Z,1.60
2022-12-27T18:50:40.924Z,1.70
2022-12-27T18:53:20.964Z,1.93
2022-12-27T18:55:58.624Z,1.20
2022-12-27T18:58:26.502Z,2.00
2022-12-27T19:00:57.873Z,1.73
2022-12-27T19:03:27.307Z,1.00
2022-12-27T19:06:03.984Z,2.73
2022-12-27T19:08:36.862Z,3.70
2022-12-27T19:11:06.468Z,1.60
2022-12-27T19:13:39.953Z,2.80
2022-12-27T19:16:08.394Z,2.10
2022-12-27T19:18:38.216Z,2.87
2022-12-27T19:21:06.995Z,3.37
2022-12-27T19:23:35.858Z,3.50
2022-12-27T19:26:22.487Z,3.20
2022-12-27T19:28:59.981Z,2.90
2022-12-27T19:31:27.995Z,3.03
2022-12-27T19:33:57.149Z,3.83
2022-12-27T19:36:27.043Z,3.10
2022-12-27T19:38:55.089Z,3.23
2022-12-27T19:41:24.694Z,2.07
2022-12-27T19:43:52.708Z,3.73
2022-12-27T19:46:27.102Z,3.97
2022-12-27T19:51:46.665Z,10.33
2022-12-27T19:54:15.814Z,3.97
2022-12-27T19:56:45.167Z,4.43
2022-12-27T19:59:16.001Z,3.60
2022-12-27T20:01:45.490Z,4.50
2022-12-27T20:04:13.709Z,3.67
2022-12-27T20:06:42.192Z,2.77
2022-12-27T20:09:11.071Z,3.73
2022-12-27T20:11:39.028Z,3.40
2022-12-27T20:14:08.375Z,3.13
2022-12-27T20:16:36.287Z,2.70
2022-12-27T20:19:04.353Z,2.30
2022-12-27T20:21:32.407Z,3.67
2022-12-27T20:24:00.318Z,1.90
2022-12-27T20:26:28.255Z,2.83
2022-12-27T20:28:56.173Z,2.50
2022-12-27T20:31:25.551Z,2.03
2022-12-27T20:33:53.685Z,2.43
2022-12-27T20:36:21.691Z,2.70
2022-12-27T20:38:49.576Z,2.37
2022-12-27T20:41:18.325Z,2.13
2022-12-27T20:43:46.383Z,2.97
2022-12-27T20:46:15.428Z,2.67
2022-12-27T20:48:46.447Z,4.13
2022-12-27T20:51:15.663Z,3.00
2022-12-27T20:53:44.322Z,2.10
2022-12-27T20:56:13.063Z,2.27
2022-12-27T20:58:41.221Z,3.30
2022-12-27T21:01:09.643Z,4.10
2022-12-27T21:03:37.658Z,2.97
2022-12-27T21:06:11.341Z,2.00
2022-12-27T21:08:46.474Z,2.17
2022-12-27T21:11:16.816Z,4.10
2022-12-27T21:13:44.894Z,1.63
2022-12-27T21:16:13.360Z,4.00
2022-12-27T21:18:41.346Z,3.53
2022-12-27T21:21:12.549Z,3.00
2022-12-27T21:23:40.749Z,2.60
2022-12-27T21:26:09.823Z,2.97
2022-12-27T21:28:37.776Z,3.60
2022-12-27T21:31:06.139Z,3.03
2022-12-27T21:33:35.146Z,3.10
2022-12-27T21:36:03.828Z,3.57
2022-12-27T21:38:33.246Z,3.13
2022-12-27T21:41:01.997Z,3.03
2022-12-27T21:43:30.428Z,2.67
2022-12-27T21:45:58.422Z,2.67
2022-12-27T21:48:26.617Z,2.90
2022-12-27T21:50:54.531Z,3.20
2022-12-27T21:53:22.459Z,2.83
2022-12-27T21:55:58.393Z,2.93
2022-12-27T21:58:26.310Z,2.67
2022-12-27T22:00:57.921Z,3.10
2022-12-27T22:03:26.181Z,3.63
2022-12-27T22:05:54.273Z,3.20
2022-12-27T22:08:22.172Z,3.40
2022-12-27T22:10:56.760Z,3.23
2022-12-27T22:13:24.691Z,2.40
2022-12-27T22:15:57.309Z,3.57
2022-12-27T22:18:25.308Z,2.53
2022-12-27T22:20:53.294Z,3.20
2022-12-27T22:23:21.222Z,3.30
2022-12-27T22:25:49.139Z,4.20
2022-12-27T22:28:18.428Z,3.93
2022-12-27T22:30:46.455Z,3.97
2022-12-27T22:33:14.394Z,2.97
2022-12-27T22:35:42.253Z,3.40
2022-12-27T22:38:10.159Z,3.53
2022-12-27T22:40:41.492Z,3.27
2022-12-27T22:43:13.780Z,3.50
2022-12-27T22:45:46.468Z,3.50
2022-12-27T22:48:16.887Z,2.73
2022-12-27T22:50:44.744Z,3.37
2022-12-27T22:53:12.611Z,3.00
2022-12-27T22:55:41.539Z,2.77
2022-12-27T22:58:09.474Z,2.53
2022-12-27T23:00:37.369Z,2.83
2022-12-27T23:03:06.651Z,1.97
2022-12-27T23:05:34.567Z,2.60
2022-12-27T23:08:04.893Z,2.70
2022-12-27T23:10:34.989Z,3.07
2022-12-27T23:13:02.888Z,2.00
2022-12-27T23:15:30.820Z,2.57
2022-12-27T23:17:59.025Z,2.80
2022-12-27T23:20:28.350Z,2.63
2022-12-27T23:22:56.480Z,2.53
2022-12-27T23:25:24.425Z,3.10
2022-12-27T23:27:52.312Z,2.83
2022-12-27T23:30:22.970Z,2.10
2022-12-27T23:32:50.903Z,2.67
2022-12-27T23:35:18.860Z,2.10
2022-12-27T23:37:48.181Z,2.33
2022-12-27T23:40:16.215Z,2.53
2022-12-27T23:42:44.148Z,2.57
2022-12-27T23:45:12.285Z,2.83
2022-12-27T23:47:40.175Z,2.23
2022-12-27T23:50:08.580Z,3.10
2022-12-27T23:52:36.588Z,2.47
2022-12-27T23:55:06.873Z,2.23
2022-12-27T23:57:34.783Z,2.20
